createdAt,value
2018-06-20T00:00:46.352Z,1004.84
2018-06-20T00:01:46.330Z,1004.73
2018-06-20T00:02:46.341Z,1004.52
2018-06-20T00:03:46.391Z,1004.53
2018-06-20T00:04:46.394Z,1004.87
2018-06-20T00:05:46.348Z,1004.63
2018-06-20T00:06:46.331Z,1004.88
2018-06-20T00:07:46.372Z,1004.97
2018-06-20T00:08:46.353Z,1004.79
2018-06-20T00:09:46.381Z,1004.88
2018-06-20T00:10:46.367Z,1005.17
2018-06-20T00:11:46.336Z,1005.08
2018-06-20T00:12:46.375Z,1004.85
2018-06-20T00:13:46.362Z,1005.02
2018-06-20T00:14:46.362Z,1004.93
2018-06-20T00:15:46.373Z,1004.92
2018-06-20T00:16:46.407Z,1005.17
2018-06-20T00:17:46.354Z,1004.92
2018-06-20T00:18:46.395Z,1004.83
2018-06-20T00:19:46.399Z,1005.2
2018-06-20T00:20:46.375Z,1005.22
2018-06-20T00:21:46.378Z,1004.93
2018-06-20T00:22:46.382Z,1005.02
2018-06-20T00:23:46.381Z,1005.28
2018-06-20T00:24:46.378Z,1005.04
2018-06-20T00:25:46.376Z,1005.04
2018-06-20T00:26:46.389Z,1005.22
2018-06-20T00:27:46.400Z,1005.2
2018-06-20T00:28:46.400Z,1005.28
2018-06-20T00:29:46.412Z,1005.3
2018-06-20T00:30:46.394Z,1005.19
2018-06-20T00:31:46.387Z,1005.25
2018-06-20T00:32:46.401Z,1005.1
2018-06-20T00:33:46.425Z,1005.15
2018-06-20T00:34:46.410Z,1005.18
2018-06-20T00:35:46.388Z,1005.59
2018-06-20T00:36:46.430Z,1005.14
2018-06-20T00:37:46.407Z,1005.12
2018-06-20T00:38:46.420Z,1005.12
2018-06-20T00:39:46.402Z,1005.3
2018-06-20T00:40:46.400Z,1005.58
2018-06-20T00:41:46.404Z,1005.31
2018-06-20T00:42:46.436Z,1005.19
2018-06-20T00:43:46.430Z,1005.39
2018-06-20T00:44:46.437Z,1005.4
2018-06-20T00:45:46.433Z,1005.58
2018-06-20T00:46:46.437Z,1005.4
2018-06-20T00:47:46.418Z,1005.43
2018-06-20T00:48:46.426Z,1005.38
2018-06-20T00:49:46.429Z,1005.42
2018-06-20T00:50:46.449Z,1005.44
2018-06-20T00:51:46.440Z,1005.36
2018-06-20T00:52:46.421Z,1005.56
2018-06-20T00:53:46.442Z,1005.65
2018-06-20T00:54:46.436Z,1005.94
2018-06-20T00:55:46.466Z,1005.4
2018-06-20T00:56:46.450Z,1005.46
2018-06-20T00:57:46.433Z,1005.84
2018-06-20T00:58:46.447Z,1005.92
2018-06-20T00:59:46.458Z,1005.85
2018-06-20T01:00:46.452Z,1006.04
2018-06-20T01:01:46.462Z,1006.07
2018-06-20T01:02:46.449Z,1006.09
2018-06-20T01:03:46.472Z,1006.06
2018-06-20T01:04:46.465Z,1006.18
2018-06-20T01:05:46.466Z,1006.17
2018-06-20T01:06:46.455Z,1006.23
2018-06-20T01:07:46.443Z,1006.17
2018-06-20T01:08:46.462Z,1006.42
2018-06-20T01:09:46.484Z,1006.37
2018-06-20T01:10:46.464Z,1006.17
2018-06-20T01:11:46.618Z,1006.22
2018-06-20T01:12:46.466Z,1006.26
2018-06-20T01:13:46.487Z,1006.82
2018-06-20T01:14:46.465Z,1006.36
2018-06-20T01:15:46.476Z,1006.36
2018-06-20T01:16:46.492Z,1006.53
2018-06-20T01:17:46.492Z,1006.26
2018-06-20T01:18:46.472Z,1006.6
2018-06-20T01:19:46.473Z,1006.51
2018-06-20T01:20:46.498Z,1006.33
2018-06-20T01:21:46.488Z,1006.33
2018-06-20T01:22:46.493Z,1006.42
2018-06-20T01:23:46.507Z,1006.5
2018-06-20T01:24:46.506Z,1006.4
2018-06-20T01:25:46.490Z,1006.24
2018-06-20T01:26:46.492Z,1006.4
2018-06-20T01:27:46.504Z,1006.56
2018-06-20T01:28:46.521Z,1006.4
2018-06-20T01:29:46.489Z,1006.65
2018-06-20T01:30:46.512Z,1006.26
2018-06-20T01:31:46.501Z,1006.61
2018-06-20T01:32:46.539Z,1006.61
2018-06-20T01:33:46.513Z,1006.32
2018-06-20T01:34:46.520Z,1006.56
2018-06-20T01:35:46.514Z,1006.69
2018-06-20T01:36:46.541Z,1006.88
2018-06-20T01:37:46.512Z,1006.72
2018-06-20T01:38:46.607Z,1006.6
2018-06-20T01:39:46.527Z,1006.88
2018-06-20T01:40:46.519Z,1006.6
2018-06-20T01:41:46.527Z,1006.82
2018-06-20T01:42:46.522Z,1006.89
2018-06-20T01:43:46.534Z,1006.67
2018-06-20T01:44:46.545Z,1006.8
2018-06-20T01:45:46.592Z,1006.75
2018-06-20T01:46:46.549Z,1006.84
2018-06-20T01:47:46.543Z,1007.01
2018-06-20T01:48:46.549Z,1006.72
2018-06-20T01:49:46.551Z,1006.81
2018-06-20T01:50:46.549Z,1007.02
2018-06-20T01:51:46.538Z,1007.08
2018-06-20T01:52:46.537Z,1006.76
2018-06-20T01:53:46.556Z,1006.89
2018-06-20T01:54:46.601Z,1006.81
2018-06-20T01:55:46.556Z,1006.71
2018-06-20T01:56:46.561Z,1006.99
2018-06-20T01:57:46.572Z,1006.73
2018-06-20T01:58:46.580Z,1006.63
2018-06-20T01:59:46.566Z,1006.74
2018-06-20T02:00:46.583Z,1007.1
2018-06-20T02:01:46.575Z,1006.99
2018-06-20T02:02:46.573Z,1006.75
2018-06-20T02:03:46.561Z,1006.97
2018-06-20T02:04:46.594Z,1007.08
2018-06-20T02:05:46.597Z,1006.96
2018-06-20T02:06:46.574Z,1007.17
2018-06-20T02:07:46.588Z,1007.18
2018-06-20T02:08:46.597Z,1007.3
2018-06-20T02:09:46.582Z,1007.2
2018-06-20T02:10:46.575Z,1007.6
2018-06-20T02:11:46.616Z,1007.55
2018-06-20T02:12:46.574Z,1007.42
2018-06-20T02:13:46.577Z,1007.49
2018-06-20T02:14:46.601Z,1007.4
2018-06-20T02:15:46.582Z,1007.39
2018-06-20T02:16:46.614Z,1007.37
2018-06-20T02:17:46.602Z,1007.49
2018-06-20T02:18:46.588Z,1007.69
2018-06-20T02:19:46.633Z,1007.53
2018-06-20T02:20:46.641Z,1007.45
2018-06-20T02:21:46.593Z,1007.58
2018-06-20T02:22:46.644Z,1007.39
2018-06-20T02:23:46.633Z,1007.46
2018-06-20T02:24:46.629Z,1007.82
2018-06-20T02:25:46.616Z,1007.47
2018-06-20T02:26:47.413Z,1007.72
2018-06-20T02:27:46.614Z,1007.35
2018-06-20T02:28:46.640Z,1007.54
2018-06-20T02:29:46.621Z,1007.9
2018-06-20T02:30:47.273Z,1007.62
2018-06-20T02:31:47.327Z,1007.5
2018-06-20T02:32:47.214Z,1007.44
2018-06-20T02:33:46.639Z,1007.49
2018-06-20T02:34:46.606Z,1007.37
2018-06-20T02:35:46.609Z,1007.36
2018-06-20T02:36:46.630Z,1007.66
2018-06-20T02:37:46.627Z,1007.68
2018-06-20T02:38:46.628Z,1007.57
2018-06-20T02:39:46.638Z,1007.62
2018-06-20T02:40:46.655Z,1007.97
2018-06-20T02:41:46.626Z,1007.68
2018-06-20T02:42:46.657Z,1007.94
2018-06-20T02:43:46.665Z,1007.73
2018-06-20T02:44:46.676Z,1007.7
2018-06-20T02:45:46.667Z,1007.81
2018-06-20T02:46:47.260Z,1007.94
2018-06-20T02:47:46.680Z,1007.95
2018-06-20T02:48:46.699Z,1007.99
2018-06-20T02:49:46.660Z,1007.81
2018-06-20T02:50:46.681Z,1007.88
2018-06-20T02:51:46.676Z,1008.19
2018-06-20T02:52:46.765Z,1008.12
2018-06-20T02:53:46.697Z,1008.29
2018-06-20T02:54:46.681Z,1008
2018-06-20T02:55:46.644Z,1008.02
2018-06-20T02:56:46.675Z,1008.1
2018-06-20T02:57:46.660Z,1008.04
2018-06-20T02:58:46.690Z,1007.92
2018-06-20T02:59:46.660Z,1008.27
2018-06-20T03:00:46.675Z,1007.9
2018-06-20T03:01:46.674Z,1008.23
2018-06-20T03:02:46.659Z,1008.13
2018-06-20T03:03:46.672Z,1008.07
2018-06-20T03:04:46.701Z,1008.13
2018-06-20T03:05:46.691Z,1008.07
2018-06-20T03:06:46.725Z,1008.32
2018-06-20T03:07:46.667Z,1008.67
2018-06-20T03:08:46.680Z,1008.33
2018-06-20T03:09:46.681Z,1008.15
2018-06-20T03:10:46.721Z,1008.36
2018-06-20T03:11:46.720Z,1008.27
2018-06-20T03:12:46.704Z,1008.25
2018-06-20T03:13:46.687Z,1008.19
2018-06-20T03:14:46.719Z,1008.27
2018-06-20T03:15:46.698Z,1008.16
2018-06-20T03:16:46.709Z,1008.28
2018-06-20T03:17:46.736Z,1008.15
2018-06-20T03:18:46.693Z,1008.01
2018-06-20T03:19:46.718Z,1008.07
2018-06-20T03:20:46.727Z,1008.28
2018-06-20T03:21:46.713Z,1008.38
2018-06-20T03:22:46.690Z,1008
2018-06-20T03:23:46.708Z,1008.34
2018-06-20T03:24:46.696Z,1008.15
2018-06-20T03:25:46.713Z,1008.05
2018-06-20T03:26:46.709Z,1008.23
2018-06-20T03:27:46.734Z,1008.23
2018-06-20T03:28:46.713Z,1008.33
2018-06-20T03:29:46.730Z,1008.4
2018-06-20T03:30:46.739Z,1008.34
2018-06-20T03:31:46.744Z,1008.53
2018-06-20T03:32:46.724Z,1008.68
2018-06-20T03:33:46.741Z,1008.54
2018-06-20T03:34:46.736Z,1008.56
2018-06-20T03:35:46.750Z,1008.66
2018-06-20T03:36:46.726Z,1008.65
2018-06-20T03:37:46.731Z,1008.67
2018-06-20T03:38:46.742Z,1008.67
2018-06-20T03:39:46.745Z,1008.91
2018-06-20T03:40:46.728Z,1008.76
2018-06-20T03:41:46.731Z,1008.85
2018-06-20T03:42:46.740Z,1008.77
2018-06-20T03:43:46.734Z,1008.66
2018-06-20T03:44:46.751Z,1008.85
2018-06-20T03:45:46.763Z,1009.01
2018-06-20T03:46:46.750Z,1008.79
2018-06-20T03:47:46.748Z,1008.87
2018-06-20T03:48:46.750Z,1008.88
2018-06-20T03:49:46.758Z,1008.73
2018-06-20T03:50:46.745Z,1009.04
2018-06-20T03:51:46.749Z,1008.87
2018-06-20T03:52:46.777Z,1008.93
2018-06-20T03:53:46.761Z,1008.69
2018-06-20T03:54:46.744Z,1008.62
2018-06-20T03:55:46.773Z,1008.76
2018-06-20T03:56:46.754Z,1008.68
2018-06-20T03:57:46.776Z,1008.77
2018-06-20T03:58:46.821Z,1008.93
2018-06-20T03:59:46.776Z,1008.84
2018-06-20T04:00:46.761Z,1008.56
2018-06-20T04:01:46.760Z,1008.47
2018-06-20T04:02:46.808Z,1009.03
2018-06-20T04:03:46.774Z,1008.65
2018-06-20T04:04:46.786Z,1008.81
2018-06-20T04:05:46.793Z,1008.92
2018-06-20T04:06:46.798Z,1008.82
2018-06-20T04:07:46.780Z,1008.82
2018-06-20T04:08:46.794Z,1008.72
2018-06-20T04:09:46.772Z,1008.52
2018-06-20T04:10:46.796Z,1008.94
2018-06-20T04:11:46.805Z,1008.9
2018-06-20T04:12:46.845Z,1008.57
2018-06-20T04:13:46.842Z,1008.7
2018-06-20T04:14:46.828Z,1009
2018-06-20T04:15:46.830Z,1008.9
2018-06-20T04:16:46.783Z,1008.88
2018-06-20T04:17:46.799Z,1008.76
2018-06-20T04:18:46.797Z,1008.61
2018-06-20T04:19:46.809Z,1008.76
2018-06-20T04:20:46.836Z,1008.86
2018-06-20T04:21:46.816Z,1009.28
2018-06-20T04:22:46.795Z,1009.02
2018-06-20T04:23:46.808Z,1009.19
2018-06-20T04:24:46.842Z,1009.2
2018-06-20T04:25:46.847Z,1009.18
2018-06-20T04:26:46.797Z,1009.07
2018-06-20T04:27:46.831Z,1009.28
2018-06-20T04:28:46.841Z,1009.19
2018-06-20T04:29:46.854Z,1009.11
2018-06-20T04:30:46.831Z,1009.41
2018-06-20T04:31:46.833Z,1009.39
2018-06-20T04:32:46.836Z,1009.38
2018-06-20T04:33:46.849Z,1009.49
2018-06-20T04:34:46.912Z,1009.33
2018-06-20T04:35:46.858Z,1009.39
2018-06-20T04:36:46.841Z,1009.28
2018-06-20T04:37:46.841Z,1009.07
2018-06-20T04:38:46.860Z,1009.01
2018-06-20T04:39:46.853Z,1009.27
2018-06-20T04:40:46.846Z,1009.08
2018-06-20T04:41:46.848Z,1009.02
2018-06-20T04:42:46.855Z,1009.17
2018-06-20T04:43:46.855Z,1008.99
2018-06-20T04:44:46.843Z,1008.99
2018-06-20T04:45:46.867Z,1009.1
2018-06-20T04:46:46.887Z,1008.7
2018-06-20T04:47:46.854Z,1008.79
2018-06-20T04:48:46.876Z,1008.75
2018-06-20T04:49:46.865Z,1008.89
2018-06-20T04:50:46.862Z,1008.95
2018-06-20T04:51:46.907Z,1009
2018-06-20T04:52:46.865Z,1008.5
2018-06-20T04:53:46.876Z,1008.81
2018-06-20T04:54:46.886Z,1009.08
2018-06-20T04:55:46.864Z,1008.94
2018-06-20T04:56:46.865Z,1008.65
2018-06-20T04:57:46.868Z,1008.74
2018-06-20T04:58:46.879Z,1008.67
2018-06-20T04:59:46.869Z,1008.45
2018-06-20T05:00:46.888Z,1008.54
2018-06-20T05:01:46.895Z,1008.92
2018-06-20T05:02:46.889Z,1008.76
2018-06-20T05:03:46.883Z,1008.52
2018-06-20T05:04:46.876Z,1008.57
2018-06-20T05:05:46.895Z,1008.55
2018-06-20T05:06:46.902Z,1008.44
2018-06-20T05:07:46.886Z,1008.57
2018-06-20T05:08:46.917Z,1008.6
2018-06-20T05:09:46.894Z,1008.59
2018-06-20T05:10:46.877Z,1008.69
2018-06-20T05:11:46.934Z,1008.89
2018-06-20T05:12:46.896Z,1008.97
2018-06-20T05:13:46.932Z,1008.94
2018-06-20T05:14:46.941Z,1009.06
2018-06-20T05:15:46.908Z,1009.3
2018-06-20T05:16:46.896Z,1009.37
2018-06-20T05:17:46.921Z,1009.19
2018-06-20T05:18:46.905Z,1009.31
2018-06-20T05:19:46.925Z,1009.72
2018-06-20T05:20:46.943Z,1009.86
2018-06-20T05:21:46.950Z,1009.75
2018-06-20T05:22:46.905Z,1009.59
2018-06-20T05:23:46.925Z,1009.87
2018-06-20T05:24:46.926Z,1009.67
2018-06-20T05:25:46.930Z,1009.6
2018-06-20T05:26:46.958Z,1009.97
2018-06-20T05:27:46.922Z,1009.78
2018-06-20T05:28:46.919Z,1009.73
2018-06-20T05:29:46.922Z,1010.03
2018-06-20T05:30:46.958Z,1009.99
2018-06-20T05:31:46.941Z,1010.22
2018-06-20T05:32:46.927Z,1010.3
2018-06-20T05:33:46.992Z,1010.09
2018-06-20T05:34:46.960Z,1010.07
2018-06-20T05:35:46.944Z,1010.32
2018-06-20T05:36:46.943Z,1010.3
2018-06-20T05:37:46.987Z,1010.41
2018-06-20T05:38:46.940Z,1010.39
2018-06-20T05:39:46.966Z,1010.37
2018-06-20T05:40:46.969Z,1010.29
2018-06-20T05:41:46.963Z,1010.29
2018-06-20T05:42:46.959Z,1010.29
2018-06-20T05:43:46.963Z,1010.45
2018-06-20T05:44:46.962Z,1010.01
2018-06-20T05:45:46.976Z,1010.21
2018-06-20T05:46:46.968Z,1010.29
2018-06-20T05:47:46.973Z,1010.18
2018-06-20T05:48:46.973Z,1010.21
2018-06-20T05:49:46.952Z,1010.43
2018-06-20T05:50:46.963Z,1010.43
2018-06-20T05:51:47.018Z,1010.64
2018-06-20T05:52:46.980Z,1010.51
2018-06-20T05:53:47.093Z,1010.75
2018-06-20T05:54:46.970Z,1010.79
2018-06-20T05:55:47.000Z,1011.08
2018-06-20T05:56:47.028Z,1010.95
2018-06-20T05:57:46.975Z,1010.89
2018-06-20T05:58:46.990Z,1011.6
2018-06-20T05:59:47.007Z,1010.82
2018-06-20T06:00:46.991Z,1010.75
2018-06-20T06:01:46.983Z,1010.93
2018-06-20T06:02:46.993Z,1011.3
2018-06-20T06:03:47.025Z,1010.93
2018-06-20T06:04:46.977Z,1011.03
2018-06-20T06:05:47.005Z,1011.1
2018-06-20T06:06:47.000Z,1011.28
2018-06-20T06:07:47.027Z,1011.19
2018-06-20T06:08:47.009Z,1011.03
2018-06-20T06:09:46.994Z,1011.06
2018-06-20T06:10:47.013Z,1011.18
2018-06-20T06:11:46.992Z,1011.52
2018-06-20T06:12:47.008Z,1011.55
2018-06-20T06:13:47.021Z,1011.82
2018-06-20T06:14:47.026Z,1011.61
2018-06-20T06:15:47.017Z,1011.9
2018-06-20T06:16:47.056Z,1011.83
2018-06-20T06:17:47.017Z,1011.97
2018-06-20T06:18:47.014Z,1011.74
2018-06-20T06:19:47.019Z,1011.81
2018-06-20T06:20:47.026Z,1012.01
2018-06-20T06:21:47.017Z,1011.91
2018-06-20T06:22:47.041Z,1011.65
2018-06-20T06:23:47.020Z,1011.68
2018-06-20T06:24:47.026Z,1011.51
2018-06-20T06:25:47.041Z,1011.75
2018-06-20T06:26:47.019Z,1011.73
2018-06-20T06:27:47.064Z,1011.76
2018-06-20T06:28:47.052Z,1011.73
2018-06-20T06:29:47.049Z,1011.55
2018-06-20T06:30:47.055Z,1011.54
2018-06-20T06:31:47.031Z,1011.43
2018-06-20T06:32:47.034Z,1011.87
2018-06-20T06:33:47.061Z,1011.63
2018-06-20T06:34:47.055Z,1011.69
2018-06-20T06:35:47.048Z,1011.9
2018-06-20T06:36:47.059Z,1011.72
2018-06-20T06:37:47.080Z,1011.73
2018-06-20T06:38:47.041Z,1011.73
2018-06-20T06:39:47.048Z,1011.72
2018-06-20T06:40:47.059Z,1011.56
2018-06-20T06:41:47.067Z,1011.76
2018-06-20T06:42:47.101Z,1011.96
2018-06-20T06:43:47.163Z,1011.71
2018-06-20T06:44:47.055Z,1011.88
2018-06-20T06:45:47.066Z,1011.86
2018-06-20T06:46:47.082Z,1011.75
2018-06-20T06:47:47.058Z,1012.13
2018-06-20T06:48:47.061Z,1012.12
2018-06-20T06:49:47.138Z,1012.32
2018-06-20T06:50:47.075Z,1012.32
2018-06-20T06:51:47.081Z,1012.58
2018-06-20T06:52:47.084Z,1012.65
2018-06-20T06:53:47.068Z,1012.65
2018-06-20T06:54:47.073Z,1012.68
2018-06-20T06:55:47.077Z,1012.83
2018-06-20T06:56:47.108Z,1012.88
2018-06-20T06:57:47.091Z,1012.76
2018-06-20T06:58:47.074Z,1012.78
2018-06-20T06:59:47.104Z,1012.58
2018-06-20T07:00:47.094Z,1012.82
2018-06-20T07:01:47.092Z,1012.68
2018-06-20T07:02:47.131Z,1012.58
2018-06-20T07:03:47.105Z,1012.56
2018-06-20T07:04:47.110Z,1012.68
2018-06-20T07:05:47.154Z,1012.23
2018-06-20T07:06:47.103Z,1012.33
2018-06-20T07:07:47.158Z,1012.3
2018-06-20T07:08:47.159Z,1012.21
2018-06-20T07:09:47.100Z,1012.22
2018-06-20T07:10:47.108Z,1012.16
2018-06-20T07:11:47.161Z,1012
2018-06-20T07:12:47.145Z,1012.2
2018-06-20T07:13:47.128Z,1012.17
2018-06-20T07:14:47.131Z,1012.14
2018-06-20T07:15:47.138Z,1012.02
2018-06-20T07:16:47.124Z,1012.11
2018-06-20T07:17:47.150Z,1012.21
2018-06-20T07:18:47.155Z,1011.84
2018-06-20T07:19:47.155Z,1012.01
2018-06-20T07:20:47.148Z,1011.78
2018-06-20T07:21:47.176Z,1011.95
2018-06-20T07:22:47.137Z,1011.94
2018-06-20T07:23:47.162Z,1011.79
2018-06-20T07:24:47.135Z,1011.94
2018-06-20T07:25:47.160Z,1011.55
2018-06-20T07:26:47.148Z,1011.71
2018-06-20T07:27:47.143Z,1011.53
2018-06-20T07:28:47.150Z,1011.45
2018-06-20T07:29:47.165Z,1011.63
2018-06-20T07:30:47.176Z,1011.62
2018-06-20T07:31:47.155Z,1011.57
2018-06-20T07:32:47.186Z,1011.71
2018-06-20T07:33:47.157Z,1011.62
2018-06-20T07:34:47.164Z,1011.86
2018-06-20T07:35:47.254Z,1011.7
2018-06-20T07:36:47.134Z,1011.84
2018-06-20T07:37:48.352Z,1011.7
2018-06-20T07:38:47.150Z,1011.57
2018-06-20T07:39:47.162Z,1011.5
2018-06-20T07:40:47.190Z,1011.51
2018-06-20T07:41:47.181Z,1011.68
2018-06-20T07:42:47.173Z,1011.57
2018-06-20T07:43:47.161Z,1011.84
2018-06-20T07:44:47.161Z,1011.57
2018-06-20T07:45:47.177Z,1011.63
2018-06-20T07:46:47.174Z,1011.58
2018-06-20T07:47:47.242Z,1011.75
2018-06-20T07:48:47.215Z,1011.59
2018-06-20T07:49:47.173Z,1011.78
2018-06-20T07:50:47.209Z,1011.8
2018-06-20T07:55:15.718Z,1011.53
2018-06-20T07:56:15.700Z,1011.41
2018-06-20T07:57:15.701Z,1011.4
2018-06-20T07:58:15.714Z,1011.6
2018-06-20T07:59:15.697Z,1011.41
2018-06-20T08:00:15.733Z,1011.3
2018-06-20T08:01:15.707Z,1011.21
2018-06-20T08:02:15.730Z,1011.29
2018-06-20T08:03:15.706Z,1010.85
2018-06-20T08:04:15.705Z,1011.2
2018-06-20T08:05:15.710Z,1011.11
2018-06-20T08:06:15.732Z,1011.18
2018-06-20T08:07:15.725Z,1011.15
2018-06-20T08:08:15.712Z,1010.76
2018-06-20T08:09:15.739Z,1010.75
2018-06-20T08:10:15.742Z,1010.55
2018-06-20T08:11:15.723Z,1010.48
2018-06-20T08:12:15.737Z,1010.45
2018-06-20T08:13:15.739Z,1010.69
2018-06-20T08:14:15.721Z,1010.64
2018-06-20T08:15:15.720Z,1010.6
2018-06-20T08:16:15.737Z,1010.26
2018-06-20T08:17:15.761Z,1010.59
2018-06-20T08:18:15.747Z,1010.15
2018-06-20T08:19:15.726Z,1010.49
2018-06-20T08:20:15.787Z,1010.28
2018-06-20T08:21:15.740Z,1010.35
2018-06-20T08:22:15.744Z,1010.26
2018-06-20T08:23:15.751Z,1010.25
2018-06-20T08:24:15.758Z,1010.06
2018-06-20T08:25:15.741Z,1010.03
2018-06-20T08:26:15.755Z,1009.96
2018-06-20T08:27:15.781Z,1010.13
2018-06-20T08:28:15.791Z,1009.95
2018-06-20T08:29:15.779Z,1010.2
2018-06-20T08:30:15.778Z,1009.96
2018-06-20T08:31:15.802Z,1009.82
2018-06-20T08:32:15.762Z,1009.8
2018-06-20T08:33:15.766Z,1009.9
2018-06-20T08:34:15.796Z,1010.05
2018-06-20T08:35:15.783Z,1009.63
2018-06-20T08:36:15.792Z,1009.52
2018-06-20T08:37:15.786Z,1009.89
2018-06-20T08:38:15.779Z,1009.54
2018-06-20T08:39:15.784Z,1009.5
2018-06-20T08:40:15.807Z,1009.46
2018-06-20T08:41:15.787Z,1009.59
2018-06-20T08:42:15.811Z,1009.48
2018-06-20T08:43:15.839Z,1009.38
2018-06-20T08:44:15.836Z,1009.25
2018-06-20T08:45:15.793Z,1009.24
2018-06-20T08:46:15.808Z,1009.25
2018-06-20T08:47:15.829Z,1009.31
2018-06-20T08:48:15.797Z,1009.13
2018-06-20T08:49:15.798Z,1009.01
2018-06-20T08:50:15.803Z,1009.39
2018-06-20T08:51:16.422Z,1009.12
2018-06-20T08:52:15.818Z,1009.14
2018-06-20T08:53:15.796Z,1009.05
2018-06-20T08:54:15.833Z,1009.08
2018-06-20T08:55:15.805Z,1008.75
2018-06-20T08:56:15.827Z,1008.86
2018-06-20T08:57:15.825Z,1009.1
2018-06-20T08:58:15.830Z,1008.99
2018-06-20T08:59:15.842Z,1008.91
2018-06-20T09:00:15.819Z,1008.69
2018-06-20T09:01:15.821Z,1008.93
2018-06-20T09:02:15.960Z,1009.08
2018-06-20T09:03:15.808Z,1008.97
2018-06-20T09:04:15.821Z,1009.01
2018-06-20T09:05:15.849Z,1008.97
2018-06-20T09:06:15.831Z,1008.88
2018-06-20T09:07:15.837Z,1008.95
2018-06-20T09:08:15.818Z,1008.77
2018-06-20T09:09:15.824Z,1008.82
2018-06-20T09:10:15.831Z,1008.71
2018-06-20T09:11:15.863Z,1008.94
2018-06-20T09:12:15.846Z,1008.93
2018-06-20T09:13:15.859Z,1008.63
2018-06-20T09:14:15.870Z,1008.81
2018-06-20T09:15:15.839Z,1008.89
2018-06-20T09:16:15.836Z,1008.4
2018-06-20T09:17:15.852Z,1008.77
2018-06-20T09:18:15.883Z,1008.74
2018-06-20T09:19:15.896Z,1008.32
2018-06-20T09:20:15.854Z,1008.47
2018-06-20T09:21:15.849Z,1008.57
2018-06-20T09:22:15.904Z,1008.5
2018-06-20T09:23:15.870Z,1008.29
2018-06-20T09:24:15.869Z,1008.46
2018-06-20T09:25:15.910Z,1008.62
2018-06-20T09:26:15.864Z,1008.46
2018-06-20T09:27:15.893Z,1008.16
2018-06-20T09:28:15.882Z,1008.31
2018-06-20T09:29:15.985Z,1008.34
2018-06-20T09:30:15.886Z,1008.21
2018-06-20T09:31:15.900Z,1008.11
2018-06-20T09:32:15.878Z,1008.14
2018-06-20T09:33:15.899Z,1008.21
2018-06-20T09:34:15.911Z,1008.13
2018-06-20T09:35:15.886Z,1008.21
2018-06-20T09:36:15.977Z,1008.42
2018-06-20T09:37:15.901Z,1008.04
2018-06-20T09:38:15.935Z,1008.33
2018-06-20T09:39:15.915Z,1008.08
2018-06-20T09:40:15.895Z,1008.08
2018-06-20T09:41:15.926Z,1008.21
2018-06-20T09:42:15.914Z,1008.16
2018-06-20T09:43:15.928Z,1007.82
2018-06-20T09:44:15.902Z,1008.21
2018-06-20T09:45:15.915Z,1007.77
2018-06-20T09:46:15.929Z,1007.81
2018-06-20T09:47:15.936Z,1007.83
2018-06-20T09:48:15.910Z,1007.63
2018-06-20T09:49:15.913Z,1007.82
2018-06-20T09:50:15.950Z,1007.63
2018-06-20T09:51:15.918Z,1007.75
2018-06-20T09:52:15.996Z,1007.82
2018-06-20T09:53:15.916Z,1007.83
2018-06-20T09:54:15.987Z,1007.62
2018-06-20T09:55:15.914Z,1007.76
2018-06-20T09:56:15.921Z,1007.64
2018-06-20T09:57:15.927Z,1007.74
2018-06-20T09:58:15.942Z,1007.79
2018-06-20T09:59:15.934Z,1007.48
2018-06-20T10:00:15.937Z,1007.76
2018-06-20T10:01:15.981Z,1007.65
2018-06-20T10:02:15.936Z,1007.5
2018-06-20T10:03:15.920Z,1007.71
2018-06-20T10:04:15.934Z,1007.41
2018-06-20T10:05:15.930Z,1007.6
2018-06-20T10:06:15.968Z,1007.39
2018-06-20T10:07:15.942Z,1007.59
2018-06-20T10:08:15.973Z,1007.59
2018-06-20T10:09:15.936Z,1007.6
2018-06-20T10:10:15.945Z,1007.53
2018-06-20T10:11:16.005Z,1007.5
2018-06-20T10:12:15.950Z,1007.48
2018-06-20T10:13:16.035Z,1007.39
2018-06-20T10:14:15.972Z,1007.32
2018-06-20T10:15:15.975Z,1007.38
2018-06-20T10:16:15.956Z,1007.38
2018-06-20T10:17:15.979Z,1007.5
2018-06-20T10:18:15.988Z,1007.3
2018-06-20T10:19:16.005Z,1007.24
2018-06-20T10:20:15.984Z,1007.25
2018-06-20T10:21:16.029Z,1007.14
2018-06-20T10:22:15.964Z,1007.34
2018-06-20T10:23:15.979Z,1007.42
2018-06-20T10:24:15.962Z,1006.98
2018-06-20T10:25:16.009Z,1007.07
2018-06-20T10:26:15.978Z,1006.9
2018-06-20T10:27:15.967Z,1007.15
2018-06-20T10:28:15.989Z,1006.8
2018-06-20T10:29:15.982Z,1006.79
2018-06-20T10:30:16.003Z,1006.85
2018-06-20T10:31:15.990Z,1007.04
2018-06-20T10:32:15.994Z,1007.08
2018-06-20T10:33:16.023Z,1006.67
2018-06-20T10:34:16.065Z,1006.78
2018-06-20T10:35:15.978Z,1006.89
2018-06-20T10:36:15.999Z,1006.78
2018-06-20T10:37:15.982Z,1006.69
2018-06-20T10:38:15.990Z,1006.73
2018-06-20T10:39:16.005Z,1006.65
2018-06-20T10:40:16.022Z,1006.79
2018-06-20T10:41:16.009Z,1006.57
2018-06-20T10:42:16.015Z,1006.38
2018-06-20T10:43:15.995Z,1006.55
2018-06-20T10:44:16.005Z,1006.54
2018-06-20T10:45:16.038Z,1006.68
2018-06-20T10:46:16.107Z,1006.68
2018-06-20T10:47:15.994Z,1006.49
2018-06-20T10:48:16.007Z,1006.48
2018-06-20T10:49:16.051Z,1006.46
2018-06-20T10:50:16.032Z,1006.31
2018-06-20T10:51:16.021Z,1005.86
2018-06-20T10:52:16.053Z,1006.48
2018-06-20T10:53:16.037Z,1006.17
2018-06-20T10:54:16.095Z,1006.25
2018-06-20T10:55:16.021Z,1006.35
2018-06-20T10:56:16.034Z,1006.14
2018-06-20T10:57:16.034Z,1006.13
2018-06-20T10:58:16.042Z,1006.16
2018-06-20T10:59:16.024Z,1006.2
2018-06-20T11:00:16.032Z,1006.33
2018-06-20T11:01:16.039Z,1006.24
2018-06-20T11:02:16.045Z,1006.17
2018-06-20T11:03:16.038Z,1006.09
2018-06-20T11:04:16.056Z,1005.83
2018-06-20T11:05:16.049Z,1006.24
2018-06-20T11:06:16.071Z,1006.1
2018-06-20T11:07:16.051Z,1005.96
2018-06-20T11:08:16.035Z,1006.13
2018-06-20T11:09:16.088Z,1006.04
2018-06-20T11:10:16.073Z,1005.63
2018-06-20T11:11:16.082Z,1006.17
2018-06-20T11:12:16.064Z,1005.7
2018-06-20T11:13:16.075Z,1005.91
2018-06-20T11:14:16.049Z,1005.9
2018-06-20T11:15:16.103Z,1005.77
2018-06-20T11:16:16.074Z,1005.62
2018-06-20T11:17:16.074Z,1005.54
2018-06-20T11:18:16.074Z,1005.7
2018-06-20T11:19:16.092Z,1005.63
2018-06-20T11:20:16.060Z,1005.75
2018-06-20T11:21:16.075Z,1005.55
2018-06-20T11:22:16.073Z,1005.27
2018-06-20T11:23:16.117Z,1005.5
2018-06-20T11:24:16.112Z,1005.53
2018-06-20T11:25:16.070Z,1005.39
2018-06-20T11:26:16.074Z,1005.45
2018-06-20T11:27:16.085Z,1005.2
2018-06-20T11:28:16.084Z,1005.33
2018-06-20T11:29:16.114Z,1005.41
2018-06-20T11:30:16.076Z,1005.4
2018-06-20T11:31:16.085Z,1005.12
2018-06-20T11:32:16.110Z,1004.99
2018-06-20T11:33:16.095Z,1005.32
2018-06-20T11:34:16.137Z,1004.82
2018-06-20T11:35:16.112Z,1004.79
2018-06-20T11:36:16.764Z,1005.16
2018-06-20T11:37:16.093Z,1004.79
2018-06-20T11:38:16.097Z,1004.78
2018-06-20T11:39:16.139Z,1004.78
2018-06-20T11:40:16.109Z,1004.83
2018-06-20T11:41:16.120Z,1004.38
2018-06-20T11:42:16.124Z,1004.65
2018-06-20T11:43:16.159Z,1004.37
2018-06-20T11:44:16.112Z,1004.51
2018-06-20T11:45:16.118Z,1004.59
2018-06-20T11:46:16.112Z,1004.29
2018-06-20T11:47:16.155Z,1004.32
2018-06-20T11:48:16.147Z,1004.37
2018-06-20T11:49:16.116Z,1004.56
2018-06-20T11:50:16.127Z,1004.17
2018-06-20T11:51:16.134Z,1004.1
2018-06-20T11:52:16.163Z,1004.13
2018-06-20T11:53:16.250Z,1004.16
2018-06-20T11:54:16.150Z,1004.14
2018-06-20T11:55:16.137Z,1004.31
2018-06-20T11:56:16.136Z,1004.2
2018-06-20T11:57:16.149Z,1004.25
2018-06-20T11:58:32.240Z,1004.13
2018-06-20T11:59:32.236Z,1003.85
2018-06-20T12:00:48.351Z,1004.09
2018-06-20T12:01:48.388Z,1004.1
2018-06-20T12:02:48.309Z,1004.16
2018-06-20T12:03:48.363Z,1003.95
2018-06-20T12:04:48.332Z,1003.99
2018-06-20T12:05:48.336Z,1003.85
2018-06-20T12:06:48.313Z,1004.01
2018-06-20T12:07:48.339Z,1003.76
2018-06-20T12:08:48.505Z,1004.03
2018-06-20T12:09:48.965Z,1003.87
2018-06-20T12:10:48.401Z,1003.84
2018-06-20T12:11:48.343Z,1003.73
2018-06-20T12:12:48.653Z,1003.66